sensor_id;sensor_type;location;lat;lon;timestamp;P1;durP1;ratioP1;P2;durP2;ratioP2
12165;SDS011;6146;48.128;11.476;2022-08-04T00:00:33;3.27;;;2.97;;
12165;SDS011;6146;48.128;11.476;2022-08-04T00:03:12;3.97;;;2.87;;
12165;SDS011;6146;48.128;11.476;2022-08-04T00:08:39;3.23;;;2.93;;
12165;SDS011;6146;48.128;11.476;2022-08-04T00:11:06;2.67;;;2.47;;
12165;SDS011;6146;48.128;11.476;2022-08-04T00:13:36;4.30;;;2.63;;
12165;SDS011;6146;48.128;11.476;2022-08-04T00:16:04;4.17;;;3.20;;
12165;SDS011;6146;48.128;11.476;2022-08-04T00:18:44;5.00;;;2.87;;
12165;SDS011;6146;48.128;11.476;2022-08-04T00:21:14;5.47;;;3.53;;
12165;SDS011;6146;48.128;11.476;2022-08-04T00:23:43;4.70;;;2.77;;
12165;SDS011;6146;48.128;11.476;2022-08-04T00:26:10;4.23;;;2.70;;
12165;SDS011;6146;48.128;11.476;2022-08-04T00:28:36;3.30;;;3.00;;
12165;SDS011;6146;48.128;11.476;2022-08-04T00:31:03;3.17;;;2.87;;
12165;SDS011;6146;48.128;11.476;2022-08-04T00:33:30;3.90;;;2.70;;
12165;SDS011;6146;48.128;11.476;2022-08-04T00:35:56;3.77;;;2.90;;
12165;SDS011;6146;48.128;11.476;2022-08-04T00:38:24;3.33;;;2.97;;
12165;SDS011;6146;48.128;11.476;2022-08-04T00:43:32;3.20;;;2.90;;
12165;SDS011;6146;48.128;11.476;2022-08-04T00:59:46;4.27;;;2.73;;
12165;SDS011;6146;48.128;11.476;2022-08-04T01:02:38;2.77;;;2.57;;
12165;SDS011;6146;48.128;11.476;2022-08-04T01:05:41;4.13;;;3.23;;
12165;SDS011;6146;48.128;11.476;2022-08-04T01:10:47;3.20;;;2.90;;
12165;SDS011;6146;48.128;11.476;2022-08-04T01:16:22;3.67;;;3.27;;
12165;SDS011;6146;48.128;11.476;2022-08-04T01:18:54;3.10;;;2.80;;
12165;SDS011;6146;48.128;11.476;2022-08-04T01:24:18;3.23;;;2.97;;
12165;SDS011;6146;48.128;11.476;2022-08-04T01:27:09;3.20;;;2.83;;
12165;SDS011;6146;48.128;11.476;2022-08-04T01:29:44;3.83;;;3.40;;
12165;SDS011;6146;48.128;11.476;2022-08-04T01:37:49;3.30;;;3.00;;
12165;SDS011;6146;48.128;11.476;2022-08-04T01:40:26;3.53;;;3.03;;
12165;SDS011;6146;48.128;11.476;2022-08-04T01:42:53;4.43;;;3.20;;
12165;SDS011;6146;48.128;11.476;2022-08-04T01:45:19;5.97;;;3.20;;
12165;SDS011;6146;48.128;11.476;2022-08-04T01:47:49;3.80;;;3.33;;
12165;SDS011;6146;48.128;11.476;2022-08-04T01:50:16;3.77;;;3.33;;
12165;SDS011;6146;48.128;11.476;2022-08-04T01:52:43;3.53;;;3.23;;
12165;SDS011;6146;48.128;11.476;2022-08-04T01:55:10;3.67;;;3.37;;
12165;SDS011;6146;48.128;11.476;2022-08-04T01:57:41;4.10;;;3.70;;
12165;SDS011;6146;48.128;11.476;2022-08-04T02:00:09;4.87;;;3.27;;
12165;SDS011;6146;48.128;11.476;2022-08-04T02:02:35;3.50;;;2.97;;
12165;SDS011;6146;48.128;11.476;2022-08-04T02:05:02;3.87;;;3.10;;
12165;SDS011;6146;48.128;11.476;2022-08-04T02:10:29;3.43;;;2.90;;
12165;SDS011;6146;48.128;11.476;2022-08-04T02:18:29;3.90;;;3.07;;
12165;SDS011;6146;48.128;11.476;2022-08-04T02:21:07;3.47;;;3.20;;
12165;SDS011;6146;48.128;11.476;2022-08-04T02:23:34;3.40;;;3.10;;
12165;SDS011;6146;48.128;11.476;2022-08-04T02:26:12;4.20;;;3.80;;
12165;SDS011;6146;48.128;11.476;2022-08-04T02:36:46;3.27;;;3.03;;
12165;SDS011;6146;48.128;11.476;2022-08-04T02:39:16;3.90;;;3.20;;
12165;SDS011;6146;48.128;11.476;2022-08-04T02:41:44;3.43;;;3.10;;
12165;SDS011;6146;48.128;11.476;2022-08-04T02:44:11;3.83;;;3.40;;
12165;SDS011;6146;48.128;11.476;2022-08-04T02:46:40;3.73;;;3.30;;
12165;SDS011;6146;48.128;11.476;2022-08-04T02:49:09;3.17;;;2.87;;
12165;SDS011;6146;48.128;11.476;2022-08-04T02:51:41;3.63;;;3.30;;
12165;SDS011;6146;48.128;11.476;2022-08-04T02:54:09;3.07;;;2.87;;
12165;SDS011;6146;48.128;11.476;2022-08-04T02:56:36;3.20;;;2.90;;
12165;SDS011;6146;48.128;11.476;2022-08-04T02:59:06;3.23;;;2.97;;
12165;SDS011;6146;48.128;11.476;2022-08-04T03:01:33;3.70;;;3.40;;
12165;SDS011;6146;48.128;11.476;2022-08-04T03:04:02;3.60;;;3.30;;
12165;SDS011;6146;48.128;11.476;2022-08-04T03:11:51;3.13;;;2.83;;
12165;SDS011;6146;48.128;11.476;2022-08-04T03:17:44;4.27;;;3.37;;
12165;SDS011;6146;48.128;11.476;2022-08-04T03:37:50;3.40;;;3.10;;
12165;SDS011;6146;48.128;11.476;2022-08-04T03:40:25;3.53;;;3.20;;
12165;SDS011;6146;48.128;11.476;2022-08-04T03:45:53;3.70;;;3.33;;
12165;SDS011;6146;48.128;11.476;2022-08-04T04:00:03;4.20;;;3.33;;
12165;SDS011;6146;48.128;11.476;2022-08-04T04:05:28;3.87;;;3.57;;
12165;SDS011;6146;48.128;11.476;2022-08-04T04:08:10;3.50;;;3.20;;
12165;SDS011;6146;48.128;11.476;2022-08-04T04:10:48;4.03;;;3.30;;
12165;SDS011;6146;48.128;11.476;2022-08-04T04:47:05;4.17;;;3.43;;
12165;SDS011;6146;48.128;11.476;2022-08-04T04:49:47;4.73;;;3.30;;
12165;SDS011;6146;48.128;11.476;2022-08-04T04:52:37;4.27;;;3.20;;
12165;SDS011;6146;48.128;11.476;2022-08-04T04:55:14;4.00;;;3.40;;
12165;SDS011;6146;48.128;11.476;2022-08-04T04:58:04;3.10;;;2.80;;
12165;SDS011;6146;48.128;11.476;2022-08-04T05:00:46;3.60;;;3.30;;
12165;SDS011;6146;48.128;11.476;2022-08-04T05:12:36;5.07;;;2.93;;
12165;SDS011;6146;48.128;11.476;2022-08-04T05:15:20;3.63;;;3.20;;
12165;SDS011;6146;48.128;11.476;2022-08-04T05:17:52;3.70;;;3.00;;
12165;SDS011;6146;48.128;11.476;2022-08-04T05:20:24;3.43;;;3.03;;
12165;SDS011;6146;48.128;11.476;2022-08-04T05:22:55;3.17;;;2.87;;
12165;SDS011;6146;48.128;11.476;2022-08-04T05:25:26;3.33;;;2.90;;
12165;SDS011;6146;48.128;11.476;2022-08-04T05:28:04;4.07;;;2.90;;
12165;SDS011;6146;48.128;11.476;2022-08-04T05:30:34;3.60;;;2.87;;
12165;SDS011;6146;48.128;11.476;2022-08-04T05:33:11;3.40;;;2.97;;
12165;SDS011;6146;48.128;11.476;2022-08-04T05:35:43;6.00;;;3.00;;
12165;SDS011;6146;48.128;11.476;2022-08-04T05:38:13;3.65;;;2.50;;
12165;SDS011;6146;48.128;11.476;2022-08-04T05:40:42;2.70;;;2.45;;
12165;SDS011;6146;48.128;11.476;2022-08-04T05:43:08;2.95;;;2.65;;
12165;SDS011;6146;48.128;11.476;2022-08-04T05:45:37;3.00;;;2.70;;
12165;SDS011;6146;48.128;11.476;2022-08-04T05:48:04;3.10;;;2.22;;
12165;SDS011;6146;48.128;11.476;2022-08-04T05:50:32;2.90;;;2.65;;
12165;SDS011;6146;48.128;11.476;2022-08-04T05:52:58;2.75;;;2.47;;
12165;SDS011;6146;48.128;11.476;2022-08-04T05:55:26;3.05;;;2.55;;
12165;SDS011;6146;48.128;11.476;2022-08-04T05:57:53;2.88;;;2.40;;
12165;SDS011;6146;48.128;11.476;2022-08-04T06:00:20;2.70;;;2.50;;
12165;SDS011;6146;48.128;11.476;2022-08-04T06:02:48;3.83;;;2.20;;
12165;SDS011;6146;48.128;11.476;2022-08-04T06:05:16;2.70;;;2.13;;
12165;SDS011;6146;48.128;11.476;2022-08-04T06:07:42;2.53;;;2.33;;
12165;SDS011;6146;48.128;11.476;2022-08-04T06:10:09;3.08;;;2.38;;
12165;SDS011;6146;48.128;11.476;2022-08-04T06:12:35;2.40;;;2.20;;
12165;SDS011;6146;48.128;11.476;2022-08-04T06:15:07;2.30;;;2.10;;
12165;SDS011;6146;48.128;11.476;2022-08-04T06:17:38;2.33;;;2.13;;
12165;SDS011;6146;48.128;11.476;2022-08-04T06:20:06;3.65;;;3.35;;
12165;SDS011;6146;48.128;11.476;2022-08-04T06:22:33;2.70;;;2.08;;
12165;SDS011;6146;48.128;11.476;2022-08-04T06:25:03;2.22;;;2.03;;
12165;SDS011;6146;48.128;11.476;2022-08-04T06:27:30;2.33;;;2.13;;
12165;SDS011;6146;48.128;11.476;2022-08-04T06:29:57;2.42;;;2.20;;
12165;SDS011;6146;48.128;11.476;2022-08-04T06:32:24;2.38;;;2.08;;
12165;SDS011;6146;48.128;11.476;2022-08-04T06:34:56;2.30;;;2.10;;
12165;SDS011;6146;48.128;11.476;2022-08-04T06:37:24;2.70;;;1.90;;
12165;SDS011;6146;48.128;11.476;2022-08-04T06:39:51;1.90;;;1.80;;
12165;SDS011;6146;48.128;11.476;2022-08-04T06:42:19;3.30;;;1.98;;
12165;SDS011;6146;48.128;11.476;2022-08-04T06:44:48;3.45;;;2.03;;
12165;SDS011;6146;48.128;11.476;2022-08-04T06:47:19;2.20;;;2.00;;
12165;SDS011;6146;48.128;11.476;2022-08-04T06:49:50;2.53;;;2.17;;
12165;SDS011;6146;48.128;11.476;2022-08-04T06:52:18;1.98;;;1.77;;
12165;SDS011;6146;48.128;11.476;2022-08-04T06:54:45;2.58;;;2.35;;
12165;SDS011;6146;48.128;11.476;2022-08-04T06:57:12;2.15;;;1.88;;
12165;SDS011;6146;48.128;11.476;2022-08-04T06:59:41;1.92;;;1.83;;
12165;SDS011;6146;48.128;11.476;2022-08-04T07:02:14;2.30;;;2.03;;
12165;SDS011;6146;48.128;11.476;2022-08-04T07:04:44;2.30;;;2.00;;
12165;SDS011;6146;48.128;11.476;2022-08-04T07:07:11;2.55;;;1.77;;
12165;SDS011;6146;48.128;11.476;2022-08-04T07:09:37;2.28;;;1.90;;
12165;SDS011;6146;48.128;11.476;2022-08-04T07:12:04;2.60;;;1.90;;
12165;SDS011;6146;48.128;11.476;2022-08-04T07:14:31;2.40;;;2.20;;
12165;SDS011;6146;48.128;11.476;2022-08-04T07:17:01;1.92;;;1.80;;
12165;SDS011;6146;48.128;11.476;2022-08-04T07:19:29;2.25;;;2.03;;
12165;SDS011;6146;48.128;11.476;2022-08-04T07:21:58;1.83;;;1.73;;
12165;SDS011;6146;48.128;11.476;2022-08-04T07:24:28;2.20;;;2.00;;
12165;SDS011;6146;48.128;11.476;2022-08-04T07:26:55;2.58;;;2.10;;
12165;SDS011;6146;48.128;11.476;2022-08-04T07:29:21;2.45;;;2.25;;
12165;SDS011;6146;48.128;11.476;2022-08-04T07:31:47;1.92;;;1.83;;
12165;SDS011;6146;48.128;11.476;2022-08-04T07:34:13;2.58;;;1.90;;
12165;SDS011;6146;48.128;11.476;2022-08-04T07:36:39;3.30;;;2.08;;
12165;SDS011;6146;48.128;11.476;2022-08-04T07:39:05;2.05;;;1.95;;
12165;SDS011;6146;48.128;11.476;2022-08-04T07:41:30;3.08;;;2.00;;
12165;SDS011;6146;48.128;11.476;2022-08-04T07:43:57;1.85;;;1.75;;
12165;SDS011;6146;48.128;11.476;2022-08-04T07:46:23;2.58;;;1.92;;
12165;SDS011;6146;48.128;11.476;2022-08-04T07:48:49;3.30;;;2.17;;
12165;SDS011;6146;48.128;11.476;2022-08-04T07:51:16;3.10;;;2.10;;
12165;SDS011;6146;48.128;11.476;2022-08-04T07:53:42;3.70;;;1.90;;
12165;SDS011;6146;48.128;11.476;2022-08-04T07:56:10;2.55;;;1.80;;
12165;SDS011;6146;48.128;11.476;2022-08-04T07:58:37;2.67;;;1.95;;
12165;SDS011;6146;48.128;11.476;2022-08-04T08:01:02;2.05;;;1.85;;
12165;SDS011;6146;48.128;11.476;2022-08-04T08:03:28;1.88;;;1.70;;
12165;SDS011;6146;48.128;11.476;2022-08-04T08:05:54;4.15;;;2.00;;
12165;SDS011;6146;48.128;11.476;2022-08-04T08:08:20;3.92;;;2.10;;
12165;SDS011;6146;48.128;11.476;2022-08-04T08:10:46;1.90;;;1.80;;
12165;SDS011;6146;48.128;11.476;2022-08-04T08:13:13;2.60;;;1.83;;
12165;SDS011;6146;48.128;11.476;2022-08-04T08:15:40;2.08;;;1.90;;
12165;SDS011;6146;48.128;11.476;2022-08-04T08:18:07;2.28;;;2.08;;
12165;SDS011;6146;48.128;11.476;2022-08-04T08:20:33;2.33;;;1.73;;
12165;SDS011;6146;48.128;11.476;2022-08-04T08:22:59;2.00;;;1.90;;
12165;SDS011;6146;48.128;11.476;2022-08-04T08:25:27;2.30;;;2.10;;
12165;SDS011;6146;48.128;11.476;2022-08-04T08:27:54;1.77;;;1.67;;
12165;SDS011;6146;48.128;11.476;2022-08-04T08:30:20;3.13;;;1.65;;
12165;SDS011;6146;48.128;11.476;2022-08-04T08:32:46;2.20;;;1.67;;
12165;SDS011;6146;48.128;11.476;2022-08-04T08:35:11;1.70;;;1.60;;
12165;SDS011;6146;48.128;11.476;2022-08-04T08:37:39;2.50;;;1.92;;
12165;SDS011;6146;48.128;11.476;2022-08-04T09:10:43;3.58;;;1.70;;
12165;SDS011;6146;48.128;11.476;2022-08-04T09:16:05;1.77;;;1.67;;
12165;SDS011;6146;48.128;11.476;2022-08-04T09:18:35;2.10;;;1.90;;
12165;SDS011;6146;48.128;11.476;2022-08-04T09:21:03;1.85;;;1.75;;
12165;SDS011;6146;48.128;11.476;2022-08-04T09:23:44;2.03;;;1.80;;
12165;SDS011;6146;48.128;11.476;2022-08-04T09:26:35;1.70;;;1.60;;
12165;SDS011;6146;48.128;11.476;2022-08-04T09:29:21;1.52;;;1.42;;
12165;SDS011;6146;48.128;11.476;2022-08-04T09:40:10;1.83;;;1.60;;
12165;SDS011;6146;48.128;11.476;2022-08-04T09:45:40;3.58;;;1.60;;
12165;SDS011;6146;48.128;11.476;2022-08-04T09:48:32;1.70;;;1.60;;
12165;SDS011;6146;48.128;11.476;2022-08-04T09:51:01;1.95;;;1.58;;
12165;SDS011;6146;48.128;11.476;2022-08-04T09:54:00;3.08;;;1.70;;
12165;SDS011;6146;48.128;11.476;2022-08-04T09:56:34;1.92;;;1.63;;
12165;SDS011;6146;48.128;11.476;2022-08-04T09:59:26;1.95;;;1.48;;
12165;SDS011;6146;48.128;11.476;2022-08-04T10:02:02;5.45;;;1.83;;
12165;SDS011;6146;48.128;11.476;2022-08-04T10:04:35;1.70;;;1.60;;
12165;SDS011;6146;48.128;11.476;2022-08-04T10:15:30;2.17;;;1.60;;
12165;SDS011;6146;48.128;11.476;2022-08-04T10:18:10;3.38;;;1.80;;
12165;SDS011;6146;48.128;11.476;2022-08-04T10:23:35;2.25;;;1.60;;
12165;SDS011;6146;48.128;11.476;2022-08-04T10:29:19;1.95;;;1.48;;
12165;SDS011;6146;48.128;11.476;2022-08-04T10:32:39;2.38;;;1.42;;
12165;SDS011;6146;48.128;11.476;2022-08-04T10:34:56;1.90;;;1.48;;
12165;SDS011;6146;48.128;11.476;2022-08-04T10:40:23;1.52;;;1.42;;
12165;SDS011;6146;48.128;11.476;2022-08-04T10:48:38;1.27;;;1.17;;
12165;SDS011;6146;48.128;11.476;2022-08-04T10:53:49;1.40;;;1.30;;
12165;SDS011;6146;48.128;11.476;2022-08-04T10:56:31;1.50;;;1.40;;
12165;SDS011;6146;48.128;11.476;2022-08-04T10:59:14;1.52;;;1.40;;
12165;SDS011;6146;48.128;11.476;2022-08-04T11:01:46;1.70;;;1.30;;
12165;SDS011;6146;48.128;11.476;2022-08-04T11:04:24;1.25;;;1.20;;
12165;SDS011;6146;48.128;11.476;2022-08-04T11:07:08;2.85;;;1.60;;
12165;SDS011;6146;48.128;11.476;2022-08-04T11:09:36;1.65;;;1.50;;
12165;SDS011;6146;48.128;11.476;2022-08-04T11:12:39;2.42;;;1.60;;
12165;SDS011;6146;48.128;11.476;2022-08-04T11:14:59;1.67;;;1.30;;
12165;SDS011;6146;48.128;11.476;2022-08-04T11:17:31;1.20;;;1.20;;
12165;SDS011;6146;48.128;11.476;2022-08-04T11:22:47;1.20;;;1.20;;
12165;SDS011;6146;48.128;11.476;2022-08-04T11:25:20;2.60;;;1.50;;
12165;SDS011;6146;48.128;11.476;2022-08-04T11:28:02;1.60;;;1.23;;
12165;SDS011;6146;48.128;11.476;2022-08-04T11:31:02;1.65;;;1.30;;
12165;SDS011;6146;48.128;11.476;2022-08-04T11:38:31;3.80;;;1.50;;
12165;SDS011;6146;48.128;11.476;2022-08-04T11:41:09;3.55;;;1.73;;
12165;SDS011;6146;48.128;11.476;2022-08-04T11:43:48;1.98;;;1.50;;
12165;SDS011;6146;48.128;11.476;2022-08-04T11:46:36;2.85;;;1.33;;
12165;SDS011;6146;48.128;11.476;2022-08-04T11:49:07;1.55;;;1.45;;
12165;SDS011;6146;48.128;11.476;2022-08-04T11:51:40;1.70;;;1.60;;
12165;SDS011;6146;48.128;11.476;2022-08-04T11:54:08;3.15;;;1.50;;
12165;SDS011;6146;48.128;11.476;2022-08-04T11:56:35;1.95;;;1.55;;
12165;SDS011;6146;48.128;11.476;2022-08-04T11:59:01;1.77;;;1.67;;
12165;SDS011;6146;48.128;11.476;2022-08-04T12:01:33;2.75;;;1.73;;
12165;SDS011;6146;48.128;11.476;2022-08-04T12:15:22;2.08;;;1.80;;
12165;SDS011;6146;48.128;11.476;2022-08-04T12:21:05;2.00;;;1.80;;
12165;SDS011;6146;48.128;11.476;2022-08-04T12:23:37;1.85;;;1.60;;
12165;SDS011;6146;48.128;11.476;2022-08-04T12:26:06;6.72;;;2.10;;
12165;SDS011;6146;48.128;11.476;2022-08-04T12:28:35;2.30;;;2.10;;
12165;SDS011;6146;48.128;11.476;2022-08-04T12:31:09;2.35;;;1.95;;
12165;SDS011;6146;48.128;11.476;2022-08-04T12:33:57;2.63;;;1.80;;
12165;SDS011;6146;48.128;11.476;2022-08-04T12:36:38;4.30;;;2.13;;
12165;SDS011;6146;48.128;11.476;2022-08-04T12:39:16;2.20;;;2.00;;
12165;SDS011;6146;48.128;11.476;2022-08-04T12:41:51;2.20;;;1.83;;
12165;SDS011;6146;48.128;11.476;2022-08-04T12:44:36;3.10;;;1.95;;
12165;SDS011;6146;48.128;11.476;2022-08-04T12:47:08;2.40;;;1.90;;
12165;SDS011;6146;48.128;11.476;2022-08-04T12:49:36;2.35;;;1.98;;
12165;SDS011;6146;48.128;11.476;2022-08-04T12:52:06;1.88;;;1.77;;
12165;SDS011;6146;48.128;11.476;2022-08-04T12:54:33;2.60;;;1.90;;
12165;SDS011;6146;48.128;11.476;2022-08-04T12:57:02;4.28;;;2.10;;
12165;SDS011;6146;48.128;11.476;2022-08-04T12:59:36;2.13;;;1.92;;
12165;SDS011;6146;48.128;11.476;2022-08-04T13:02:06;12.73;;;3.10;;
12165;SDS011;6146;48.128;11.476;2022-08-04T13:04:44;2.85;;;2.00;;
12165;SDS011;6146;48.128;11.476;2022-08-04T13:07:14;4.57;;;1.85;;
12165;SDS011;6146;48.128;11.476;2022-08-04T13:09:43;3.35;;;1.83;;
12165;SDS011;6146;48.128;11.476;2022-08-04T13:12:11;2.63;;;1.80;;
12165;SDS011;6146;48.128;11.476;2022-08-04T13:14:40;2.10;;;1.90;;
12165;SDS011;6146;48.128;11.476;2022-08-04T13:17:12;1.90;;;1.80;;
12165;SDS011;6146;48.128;11.476;2022-08-04T13:19:38;4.45;;;2.15;;
12165;SDS011;6146;48.128;11.476;2022-08-04T13:22:13;2.72;;;2.00;;
12165;SDS011;6146;48.128;11.476;2022-08-04T13:24:48;5.57;;;2.00;;
12165;SDS011;6146;48.128;11.476;2022-08-04T13:27:15;2.60;;;1.90;;
12165;SDS011;6146;48.128;11.476;2022-08-04T13:29:42;2.42;;;1.75;;
12165;SDS011;6146;48.128;11.476;2022-08-04T13:32:10;2.83;;;2.00;;
12165;SDS011;6146;48.128;11.476;2022-08-04T13:34:41;2.33;;;1.77;;
12165;SDS011;6146;48.128;11.476;2022-08-04T13:37:09;2.15;;;1.95;;
12165;SDS011;6146;48.128;11.476;2022-08-04T13:39:35;2.95;;;2.00;;
12165;SDS011;6146;48.128;11.476;2022-08-04T13:42:09;3.28;;;1.67;;
12165;SDS011;6146;48.128;11.476;2022-08-04T13:44:37;4.05;;;2.25;;
12165;SDS011;6146;48.128;11.476;2022-08-04T13:47:07;2.78;;;1.90;;
12165;SDS011;6146;48.128;11.476;2022-08-04T13:49:38;2.65;;;2.10;;
12165;SDS011;6146;48.128;11.476;2022-08-04T13:52:04;2.10;;;2.00;;
12165;SDS011;6146;48.128;11.476;2022-08-04T13:54:37;5.22;;;2.08;;
12165;SDS011;6146;48.128;11.476;2022-08-04T13:57:07;4.07;;;2.17;;
12165;SDS011;6146;48.128;11.476;2022-08-04T13:59:39;2.10;;;1.90;;
12165;SDS011;6146;48.128;11.476;2022-08-04T14:02:20;3.00;;;2.28;;
12165;SDS011;6146;48.128;11.476;2022-08-04T14:05:14;2.92;;;1.95;;
12165;SDS011;6146;48.128;11.476;2022-08-04T14:07:46;2.70;;;2.10;;
12165;SDS011;6146;48.128;11.476;2022-08-04T14:10:18;3.40;;;1.98;;
12165;SDS011;6146;48.128;11.476;2022-08-04T14:12:47;3.47;;;2.05;;
12165;SDS011;6146;48.128;11.476;2022-08-04T14:20:58;3.05;;;2.00;;
12165;SDS011;6146;48.128;11.476;2022-08-04T14:23:24;4.07;;;2.10;;
12165;SDS011;6146;48.128;11.476;2022-08-04T14:25:51;2.35;;;2.10;;
12165;SDS011;6146;48.128;11.476;2022-08-04T14:28:29;2.95;;;2.05;;
12165;SDS011;6146;48.128;11.476;2022-08-04T14:31:12;3.50;;;2.30;;
12165;SDS011;6146;48.128;11.476;2022-08-04T14:33:43;2.10;;;1.90;;
12165;SDS011;6146;48.128;11.476;2022-08-04T14:36:10;1.88;;;1.77;;
12165;SDS011;6146;48.128;11.476;2022-08-04T14:41:14;2.00;;;1.90;;
12165;SDS011;6146;48.128;11.476;2022-08-04T14:43:45;2.33;;;1.92;;
12165;SDS011;6146;48.128;11.476;2022-08-04T14:46:11;2.75;;;2.03;;
12165;SDS011;6146;48.128;11.476;2022-08-04T14:48:37;1.90;;;1.80;;
12165;SDS011;6146;48.128;11.476;2022-08-04T14:51:04;2.22;;;1.90;;
12165;SDS011;6146;48.128;11.476;2022-08-04T14:53:36;2.38;;;2.00;;
12165;SDS011;6146;48.128;11.476;2022-08-04T14:56:02;2.60;;;1.90;;
12165;SDS011;6146;48.128;11.476;2022-08-04T14:58:30;5.82;;;2.10;;
12165;SDS011;6146;48.128;11.476;2022-08-04T15:00:59;5.03;;;1.80;;
12165;SDS011;6146;48.128;11.476;2022-08-04T15:03:28;2.80;;;2.10;;
12165;SDS011;6146;48.128;11.476;2022-08-04T15:05:55;2.92;;;2.05;;
12165;SDS011;6146;48.128;11.476;2022-08-04T15:08:22;2.28;;;1.95;;
12165;SDS011;6146;48.128;11.476;2022-08-04T15:10:48;4.80;;;1.80;;
12165;SDS011;6146;48.128;11.476;2022-08-04T15:13:14;2.70;;;1.83;;
12165;SDS011;6146;48.128;11.476;2022-08-04T15:15:40;3.05;;;1.88;;
12165;SDS011;6146;48.128;11.476;2022-08-04T15:18:07;1.90;;;1.80;;
12165;SDS011;6146;48.128;11.476;2022-08-04T15:20:36;3.90;;;1.90;;
12165;SDS011;6146;48.128;11.476;2022-08-04T15:23:03;2.95;;;1.80;;
12165;SDS011;6146;48.128;11.476;2022-08-04T15:25:34;3.17;;;1.85;;
12165;SDS011;6146;48.128;11.476;2022-08-04T15:28:07;2.25;;;1.90;;
12165;SDS011;6146;48.128;11.476;2022-08-04T15:30:37;3.00;;;2.08;;
12165;SDS011;6146;48.128;11.476;2022-08-04T15:33:04;2.10;;;1.85;;
12165;SDS011;6146;48.128;11.476;2022-08-04T15:35:31;1.85;;;1.70;;
12165;SDS011;6146;48.128;11.476;2022-08-04T15:45:57;2.33;;;1.92;;
12165;SDS011;6146;48.128;11.476;2022-08-04T15:48:25;4.03;;;1.90;;
12165;SDS011;6146;48.128;11.476;2022-08-04T15:53:24;2.20;;;2.00;;
12165;SDS011;6146;48.128;11.476;2022-08-04T15:55:50;5.15;;;1.90;;
12165;SDS011;6146;48.128;11.476;2022-08-04T15:58:18;2.45;;;2.00;;
12165;SDS011;6146;48.128;11.476;2022-08-04T16:16:30;2.38;;;2.10;;
12165;SDS011;6146;48.128;11.476;2022-08-04T16:21:53;2.20;;;2.00;;
12165;SDS011;6146;48.128;11.476;2022-08-04T16:24:21;3.97;;;2.10;;
12165;SDS011;6146;48.128;11.476;2022-08-04T16:34:40;4.97;;;2.40;;
12165;SDS011;6146;48.128;11.476;2022-08-04T16:37:10;2.30;;;2.10;;
12165;SDS011;6146;48.128;11.476;2022-08-04T16:39:37;3.13;;;2.33;;
12165;SDS011;6146;48.128;11.476;2022-08-04T16:50:11;2.85;;;2.13;;
12165;SDS011;6146;48.128;11.476;2022-08-04T16:52:47;3.70;;;2.30;;
12165;SDS011;6146;48.128;11.476;2022-08-04T16:55:14;2.42;;;2.22;;
12165;SDS011;6146;48.128;11.476;2022-08-04T16:57:40;3.60;;;2.13;;
12165;SDS011;6146;48.128;11.476;2022-08-04T17:00:09;3.53;;;2.22;;
12165;SDS011;6146;48.128;11.476;2022-08-04T17:02:35;2.42;;;2.03;;
12165;SDS011;6146;48.128;11.476;2022-08-04T17:05:01;4.07;;;2.15;;
12165;SDS011;6146;48.128;11.476;2022-08-04T17:07:27;3.10;;;2.40;;
12165;SDS011;6146;48.128;11.476;2022-08-04T17:09:52;3.40;;;2.22;;
12165;SDS011;6146;48.128;11.476;2022-08-04T17:12:19;2.28;;;2.08;;
12165;SDS011;6146;48.128;11.476;2022-08-04T17:14:52;2.45;;;2.25;;
12165;SDS011;6146;48.128;11.476;2022-08-04T17:17:18;3.30;;;2.30;;
12165;SDS011;6146;48.128;11.476;2022-08-04T17:19:52;3.33;;;2.28;;
12165;SDS011;6146;48.128;11.476;2022-08-04T17:22:18;3.13;;;2.22;;
12165;SDS011;6146;48.128;11.476;2022-08-04T17:24:44;3.92;;;2.20;;
12165;SDS011;6146;48.128;11.476;2022-08-04T17:27:10;2.63;;;2.40;;
12165;SDS011;6146;48.128;11.476;2022-08-04T17:29:36;2.50;;;2.30;;
12165;SDS011;6146;48.128;11.476;2022-08-04T17:32:02;2.20;;;2.00;;
12165;SDS011;6146;48.128;11.476;2022-08-04T17:34:28;4.13;;;2.25;;
12165;SDS011;6146;48.128;11.476;2022-08-04T17:36:54;2.45;;;2.13;;
12165;SDS011;6146;48.128;11.476;2022-08-04T17:39:20;2.78;;;2.10;;
12165;SDS011;6146;48.128;11.476;2022-08-04T17:41:48;2.42;;;2.22;;
12165;SDS011;6146;48.128;11.476;2022-08-04T17:44:20;2.30;;;2.00;;
12165;SDS011;6146;48.128;11.476;2022-08-04T17:46:45;4.38;;;2.38;;
12165;SDS011;6146;48.128;11.476;2022-08-04T17:51:44;2.40;;;2.20;;
12165;SDS011;6146;48.128;11.476;2022-08-04T17:54:18;2.83;;;2.30;;
12165;SDS011;6146;48.128;11.476;2022-08-04T17:56:46;3.45;;;2.20;;
12165;SDS011;6146;48.128;11.476;2022-08-04T18:07:00;3.55;;;2.33;;
12165;SDS011;6146;48.128;11.476;2022-08-04T18:09:30;2.60;;;2.40;;
12165;SDS011;6146;48.128;11.476;2022-08-04T18:12:04;3.58;;;2.80;;
12165;SDS011;6146;48.128;11.476;2022-08-04T18:14:37;3.17;;;2.67;;
12165;SDS011;6146;48.128;11.476;2022-08-04T18:17:08;3.45;;;2.40;;
12165;SDS011;6146;48.128;11.476;2022-08-04T18:19:34;2.60;;;2.40;;
12165;SDS011;6146;48.128;11.476;2022-08-04T18:22:04;2.50;;;2.13;;
12165;SDS011;6146;48.128;11.476;2022-08-04T18:24:31;2.58;;;2.35;;
12165;SDS011;6146;48.128;11.476;2022-08-04T18:26:58;3.72;;;2.60;;
12165;SDS011;6146;48.128;11.476;2022-08-04T18:29:23;2.65;;;2.45;;
12165;SDS011;6146;48.128;11.476;2022-08-04T18:31:49;3.33;;;2.53;;
12165;SDS011;6146;48.128;11.476;2022-08-04T18:34:15;2.30;;;2.10;;
12165;SDS011;6146;48.128;11.476;2022-08-04T18:36:40;3.45;;;2.50;;
12165;SDS011;6146;48.128;11.476;2022-08-04T18:39:08;3.00;;;2.70;;
12165;SDS011;6146;48.128;11.476;2022-08-04T18:41:34;3.50;;;2.70;;
12165;SDS011;6146;48.128;11.476;2022-08-04T18:44:00;3.47;;;3.17;;
12165;SDS011;6146;48.128;11.476;2022-08-04T18:46:26;5.17;;;3.40;;
12165;SDS011;6146;48.128;11.476;2022-08-04T18:48:51;4.07;;;3.57;;
12165;SDS011;6146;48.128;11.476;2022-08-04T18:51:17;8.50;;;4.10;;
12165;SDS011;6146;48.128;11.476;2022-08-04T18:53:43;5.13;;;3.57;;
12165;SDS011;6146;48.128;11.476;2022-08-04T18:56:10;3.80;;;3.50;;
12165;SDS011;6146;48.128;11.476;2022-08-04T18:58:36;4.37;;;3.40;;
12165;SDS011;6146;48.128;11.476;2022-08-04T19:01:01;4.37;;;3.70;;
12165;SDS011;6146;48.128;11.476;2022-08-04T19:03:27;3.90;;;3.57;;
12165;SDS011;6146;48.128;11.476;2022-08-04T19:05:53;4.70;;;4.27;;
12165;SDS011;6146;48.128;11.476;2022-08-04T19:08:19;4.40;;;3.97;;
12165;SDS011;6146;48.128;11.476;2022-08-04T19:10:45;4.40;;;3.60;;
12165;SDS011;6146;48.128;11.476;2022-08-04T19:13:10;4.37;;;3.57;;
12165;SDS011;6146;48.128;11.476;2022-08-04T19:15:36;4.30;;;3.67;;
12165;SDS011;6146;48.128;11.476;2022-08-04T19:18:01;3.97;;;3.37;;
12165;SDS011;6146;48.128;11.476;2022-08-04T19:20:27;5.43;;;3.67;;
12165;SDS011;6146;48.128;11.476;2022-08-04T19:22:53;4.10;;;3.63;;
12165;SDS011;6146;48.128;11.476;2022-08-04T19:25:19;5.00;;;3.67;;
12165;SDS011;6146;48.128;11.476;2022-08-04T19:27:45;5.17;;;3.57;;
12165;SDS011;6146;48.128;11.476;2022-08-04T19:30:10;5.80;;;3.87;;
12165;SDS011;6146;48.128;11.476;2022-08-04T19:32:36;5.70;;;3.80;;
12165;SDS011;6146;48.128;11.476;2022-08-04T19:35:02;4.17;;;3.30;;
12165;SDS011;6146;48.128;11.476;2022-08-04T19:37:28;4.73;;;3.53;;
12165;SDS011;6146;48.128;11.476;2022-08-04T19:39:55;4.53;;;3.70;;
12165;SDS011;6146;48.128;11.476;2022-08-04T19:42:21;3.53;;;3.23;;
12165;SDS011;6146;48.128;11.476;2022-08-04T19:44:47;4.30;;;3.47;;
12165;SDS011;6146;48.128;11.476;2022-08-04T19:47:12;5.37;;;3.90;;
12165;SDS011;6146;48.128;11.476;2022-08-04T19:49:38;4.07;;;3.67;;
12165;SDS011;6146;48.128;11.476;2022-08-04T19:52:04;4.10;;;3.60;;
12165;SDS011;6146;48.128;11.476;2022-08-04T19:54:31;6.77;;;4.30;;
12165;SDS011;6146;48.128;11.476;2022-08-04T19:56:56;4.33;;;3.67;;
12165;SDS011;6146;48.128;11.476;2022-08-04T19:59:22;5.83;;;4.27;;